Time;durP1;ratioP1;P1;durP2;ratioP2;P2;SDS_P1;SDS_P2;PMS_P1;PMS_P2;Temp;Humidity;BMP_temperature;BMP_pressure;BME280_temperature;BME280_humidity;BME280_pressure;Samples;Min_cycle;Max_cycle;Signal;HPM_P1;HPM_P2
2022/09/03 00:02:19;;;;;;;10.60;4.00;;;;;;;15.60;46.27;99254.70;105884;1280;99292;-63
2022/09/03 00:05:09;;;;;;;13.80;5.10;;;;;;;15.58;46.40;99256.71;105874;1277;108792;-63
2022/09/03 00:07:59;;;;;;;10.30;3.90;;;;;;;15.55;46.49;99254.44;105946;1277;99269;-64
2022/09/03 00:10:56;;;;;;;10.40;3.90;;;;;;;15.52;46.61;99247.71;106013;1277;99334;-62
2022/09/03 00:14:02;;;;;;;9.70;3.80;;;;;;;15.48;46.63;99247.75;105842;1277;113472;-63
2022/09/03 00:16:51;;;;;;;12.00;4.20;;;;;;;15.44;46.93;99246.64;105726;1278;99220;-64
2022/09/03 00:19:30;;;;;;;12.20;4.30;;;;;;;15.43;46.95;99242.50;106021;1278;108339;-64
2022/09/03 00:22:09;;;;;;;8.60;3.40;;;;;;;15.40;46.86;99239.52;106022;1277;99236;-63
2022/09/03 00:24:41;;;;;;;10.80;4.00;;;;;;;15.36;46.86;99239.17;105993;1277;99262;-64
2022/09/03 00:27:16;;;;;;;10.40;3.70;;;;;;;15.29;46.92;99236.88;105852;1278;113269;-63
2022/09/03 00:30:04;;;;;;;9.30;3.70;;;;;;;15.21;46.95;99231.55;105868;1278;99303;-63
2022/09/03 00:32:51;;;;;;;8.10;3.50;;;;;;;15.11;47.30;99239.02;105859;1277;108233;-63
2022/09/03 00:35:53;;;;;;;9.30;3.70;;;;;;;15.07;47.29;99241.55;105816;1277;99313;-63
2022/09/03 00:38:22;;;;;;;8.80;3.50;;;;;;;15.03;47.65;99240.85;105716;1278;99999;-64
2022/09/03 00:41:15;;;;;;;12.00;4.10;;;;;;;15.01;47.74;99239.20;105825;1281;113421;-60
2022/09/03 00:43:45;;;;;;;8.70;3.20;;;;;;;15.01;47.86;99242.25;105969;1281;99226;-62
2022/09/03 00:46:21;;;;;;;6.40;3.40;;;;;;;14.99;47.91;99240.98;105975;1277;108767;-63
2022/09/03 00:49:34;;;;;;;9.90;3.80;;;;;;;14.99;48.03;99243.31;105993;1277;99215;-62
2022/09/03 00:52:17;;;;;;;8.70;3.60;;;;;;;14.97;48.25;99241.33;105976;1278;99093;-63
2022/09/03 00:55:09;;;;;;;10.40;3.70;;;;;;;14.98;48.35;99246.40;105988;1277;114071;-64
2022/09/03 00:57:47;;;;;;;9.40;3.50;;;;;;;14.96;48.40;99242.69;105993;1277;99245;-63
2022/09/03 01:00:21;;;;;;;10.10;4.40;;;;;;;14.96;48.43;99241.83;106067;1277;107759;-64
2022/09/03 01:03:07;;;;;;;9.30;3.90;;;;;;;14.94;48.51;99243.91;106008;1278;97054;-63
2022/09/03 01:05:47;;;;;;;8.90;3.70;;;;;;;14.93;48.70;99242.99;106004;1277;99233;-64
2022/09/03 01:08:38;;;;;;;10.30;3.70;;;;;;;14.92;48.73;99245.92;105851;1278;113098;-64
2022/09/03 01:11:30;;;;;;;7.40;3.20;;;;;;;14.88;48.79;99247.48;105974;1277;99323;-63
2022/09/03 01:14:31;;;;;;;9.20;3.80;;;;;;;14.86;48.98;99249.40;106029;1277;108398;-62
2022/09/03 01:17:11;;;;;;;12.10;3.50;;;;;;;14.83;49.02;99249.03;106018;1277;99225;-62
2022/09/03 01:19:51;;;;;;;9.30;4.20;;;;;;;14.81;49.02;99249.36;106060;1277;96624;-63
2022/09/03 01:22:32;;;;;;;10.10;4.00;;;;;;;14.77;49.13;99250.98;106034;1278;112326;-64
2022/09/03 01:25:10;;;;;;;9.30;3.90;;;;;;;14.74;49.22;99247.41;106024;1277;99065;-65
2022/09/03 01:28:09;;;;;;;11.70;3.80;;;;;;;14.72;49.29;99251.52;105976;1277;108416;-64
2022/09/03 01:30:46;;;;;;;13.10;4.20;;;;;;;14.70;49.55;99245.81;105931;1277;99244;-64
2022/09/03 01:33:50;;;;;;;10.90;4.40;;;;;;;14.69;49.60;99246.61;105977;1277;96757;-64
2022/09/03 01:36:56;;;;;;;11.60;4.30;;;;;;;14.66;49.64;99245.13;105844;1277;113408;-65
2022/09/03 01:39:56;;;;;;;8.90;3.60;;;;;;;14.61;49.84;99245.67;106014;1277;99246;-66
2022/09/03 01:43:00;;;;;;;13.20;4.10;;;;;;;14.61;49.93;99243.58;105976;1277;107714;-63
2022/09/03 01:45:48;;;;;;;8.30;3.70;;;;;;;14.58;49.80;99243.43;105941;1277;99327;-62
2022/09/03 01:48:30;;;;;;;14.00;4.00;;;;;;;14.54;50.21;99242.73;105979;1277;99823;-63
2022/09/03 01:51:11;;;;;;;10.90;4.30;;;;;;;14.54;50.21;99238.46;105976;1278;113570;-65
2022/09/03 01:54:09;;;;;;;13.00;4.80;;;;;;;14.52;50.07;99239.27;105991;1277;99215;-66
2022/09/03 01:57:26;;;;;;;12.40;4.10;;;;;;;14.51;50.42;99240.34;105952;1276;108351;-65
2022/09/03 02:00:18;;;;;;;12.90;4.20;;;;;;;14.50;50.59;99238.92;105853;1277;99355;-63
2022/09/03 02:02:50;;;;;;;13.00;4.00;;;;;;;14.51;50.57;99240.81;106096;1277;99321;-65
2022/09/03 02:05:28;;;;;;;10.30;4.60;;;;;;;14.49;50.65;99237.56;105975;1277;113233;-67
2022/09/03 02:07:59;;;;;;;11.80;4.10;;;;;;;14.49;50.77;99235.98;105922;1277;99116;-65
2022/09/03 02:10:46;;;;;;;10.60;4.30;;;;;;;14.50;50.84;99237.14;105896;1277;108732;-65
2022/09/03 02:13:23;;;;;;;12.40;4.20;;;;;;;14.49;50.93;99235.80;106069;1277;99379;-65
2022/09/03 02:15:54;;;;;;;9.60;3.70;;;;;;;14.48;50.91;99234.69;106098;1277;99321;-65
2022/09/03 02:18:28;;;;;;;9.40;3.80;;;;;;;14.47;51.00;99235.66;106144;1277;112620;-67
2022/09/03 02:20:59;;;;;;;9.70;3.80;;;;;;;14.45;50.91;99235.13;106073;1277;96624;-65
2022/09/03 02:23:28;;;;;;;14.10;3.70;;;;;;;14.43;51.06;99237.63;105963;1275;107914;-64
2022/09/03 02:26:00;;;;;;;9.40;3.90;;;;;;;14.38;51.07;99241.91;106014;1277;99301;-63
2022/09/03 02:28:31;;;;;;;12.80;4.50;;;;;;;14.36;51.32;99240.17;106045;1277;99172;-63
2022/09/03 02:30:59;;;;;;;13.20;4.90;;;;;;;14.36;51.40;99242.98;105876;1280;112780;-65
2022/09/03 02:33:36;;;;;;;15.00;4.50;;;;;;;14.35;51.50;99239.53;105926;1277;99358;-68
2022/09/03 02:36:08;;;;;;;14.10;4.60;;;;;;;14.36;51.65;99239.25;105898;1277;108174;-63
2022/09/03 02:38:37;;;;;;;10.80;4.20;;;;;;;14.38;51.75;99240.73;105921;1277;99201;-64
2022/09/03 02:41:05;;;;;;;11.60;4.10;;;;;;;14.39;51.74;99239.68;105957;1277;99327;-63
2022/09/03 02:43:45;;;;;;;14.20;4.60;;;;;;;14.38;51.75;99238.39;105920;1277;113772;-62
2022/09/03 02:46:26;;;;;;;12.20;4.00;;;;;;;14.37;51.96;99243.10;105896;1277;99205;-64
2022/09/03 02:48:55;;;;;;;10.40;4.10;;;;;;;14.36;52.06;99244.98;105985;1277;107040;-64
2022/09/03 02:51:23;;;;;;;12.30;4.50;;;;;;;14.36;52.08;99246.39;105932;1277;99323;-65
2022/09/03 02:53:54;;;;;;;13.90;4.40;;;;;;;14.36;51.93;99246.02;105971;1277;99263;-65
2022/09/03 02:56:26;;;;;;;14.80;4.50;;;;;;;14.32;52.01;99244.04;105943;1277;113337;-65
2022/09/03 02:58:55;;;;;;;11.00;4.60;;;;;;;14.29;52.16;99243.25;105914;1277;99863;-65
2022/09/03 03:01:24;;;;;;;15.10;4.30;;;;;;;14.27;52.17;99239.08;105950;1276;108213;-64
2022/09/03 03:03:53;;;;;;;13.10;4.70;;;;;;;14.26;52.41;99238.86;106020;1277;99333;-60
2022/09/03 03:06:22;;;;;;;13.20;5.20;;;;;;;14.26;52.16;99235.85;105965;1277;99308;-64
2022/09/03 03:08:51;;;;;;;10.10;4.30;;;;;;;14.19;52.32;99233.38;105993;1276;112827;-64
2022/09/03 03:11:20;;;;;;;14.60;4.80;;;;;;;14.14;52.55;99241.26;105991;1277;99411;-64
2022/09/03 03:13:49;;;;;;;12.40;4.40;;;;;;;14.13;52.64;99244.59;105996;1277;108365;-63
2022/09/03 03:16:18;;;;;;;9.00;4.30;;;;;;;14.12;52.74;99243.58;105981;1277;99327;-64
2022/09/03 03:18:46;;;;;;;11.10;4.30;;;;;;;14.12;52.67;99243.59;106054;1277;99312;-63
2022/09/03 03:21:17;;;;;;;10.60;4.60;;;;;;;14.10;52.65;99241.30;105974;1276;113355;-61
2022/09/03 03:23:45;;;;;;;12.10;4.40;;;;;;;14.07;52.93;99240.86;105983;1277;99911;-63
2022/09/03 03:26:19;;;;;;;12.50;4.80;;;;;;;14.06;53.16;99240.71;105954;1277;108230;-64
2022/09/03 03:28:55;;;;;;;14.70;4.90;;;;;;;14.06;53.15;99239.28;105968;1277;99318;-64
2022/09/03 03:31:26;;;;;;;17.20;4.90;;;;;;;14.06;53.33;99242.47;105967;1277;98394;-64
2022/09/03 03:33:59;;;;;;;12.20;4.60;;;;;;;14.07;53.27;99246.11;105980;1277;113367;-65
2022/09/03 03:36:29;;;;;;;;;;;;;;;14.07;53.34;99246.47;106006;1276;99237;-62
2022/09/03 03:39:00;;;;;;;13.30;4.80;;;;;;;14.06;53.48;99243.58;105997;1276;107546;-63
2022/09/03 03:41:34;;;;;;;13.90;5.20;;;;;;;14.05;53.49;99244.52;105875;1279;99264;-66
2022/09/03 03:44:05;;;;;;;13.30;4.90;;;;;;;14.06;53.48;99240.35;105989;1276;99221;-63
2022/09/03 03:46:36;;;;;;;11.60;4.70;;;;;;;14.07;53.64;99240.33;105953;1276;112885;-64
2022/09/03 03:49:07;;;;;;;16.00;5.40;;;;;;;14.08;53.77;99236.61;106006;1277;99212;-63
2022/09/03 03:51:37;;;;;;;13.40;4.50;;;;;;;14.09;53.80;99235.49;105962;1277;108393;-63
2022/09/03 03:54:06;;;;;;;12.30;4.70;;;;;;;14.07;53.76;99234.56;104557;1277;1835865;-62
2022/09/03 03:56:37;;;;;;;15.30;4.90;;;;;;;14.08;54.00;99236.10;106008;1276;97489;-66
2022/09/03 03:59:06;;;;;;;10.60;4.60;;;;;;;14.09;53.97;99234.36;106126;1277;113372;-64
2022/09/03 04:01:34;;;;;;;13.80;4.60;;;;;;;14.10;54.05;99231.45;106000;1277;99354;-63
2022/09/03 04:04:02;;;;;;;15.20;5.10;;;;;;;14.11;54.11;99231.89;106123;1276;108091;-59
2022/09/03 04:06:31;;;;;;;16.80;5.70;;;;;;;14.12;54.20;99231.10;105971;1277;99227;-66
2022/09/03 04:08:59;;;;;;;13.90;4.40;;;;;;;14.14;54.23;99229.00;105955;1276;99345;-63
2022/09/03 04:11:27;;;;;;;13.20;5.10;;;;;;;14.14;54.18;99230.04;105868;1277;112756;-64
2022/09/03 04:13:56;;;;;;;12.10;4.40;;;;;;;14.12;54.20;99230.90;105963;1276;99307;-62
2022/09/03 04:16:28;;;;;;;15.20;4.80;;;;;;;14.09;54.27;99232.05;106039;1276;108396;-63
2022/09/03 04:18:56;;;;;;;15.20;4.50;;;;;;;14.08;54.24;99234.16;105698;1278;99314;-63
2022/09/03 04:21:28;;;;;;;15.70;4.90;;;;;;;14.06;54.32;99237.39;105941;1277;99304;-63
2022/09/03 04:23:58;;;;;;;12.20;4.70;;;;;;;14.03;54.58;99233.80;105854;1277;112888;-64
2022/09/03 04:26:32;;;;;;;13.90;5.10;;;;;;;14.05;54.42;99234.41;105869;1277;99176;-63
2022/09/03 04:29:04;;;;;;;13.60;4.30;;;;;;;14.03;54.76;99234.40;105835;1277;107680;-64
2022/09/03 04:31:34;;;;;;;13.40;4.60;;;;;;;14.03;54.72;99232.23;105852;1276;99921;-63
2022/09/03 04:34:05;;;;;;;14.40;4.60;;;;;;;14.03;54.67;99235.61;105937;1277;96620;-64
2022/09/03 04:36:33;;;;;;;15.00;5.60;;;;;;;14.02;54.84;99234.81;105906;1277;113462;-65
2022/09/03 04:39:02;;;;;;;12.40;4.10;;;;;;;14.04;54.78;99236.98;105885;1277;98369;-63
2022/09/03 04:41:30;;;;;;;10.30;4.50;;;;;;;14.05;54.77;99239.23;105828;1277;108491;-63
2022/09/03 04:43:59;;;;;;;12.30;4.50;;;;;;;14.06;55.01;99241.25;105973;1277;99361;-64
2022/09/03 04:46:32;;;;;;;10.50;4.30;;;;;;;14.10;55.11;99241.11;105801;1277;99359;-66
2022/09/03 04:49:02;;;;;;;9.80;4.20;;;;;;;14.13;55.12;99243.15;105850;1275;113273;-65
2022/09/03 04:51:32;;;;;;;11.70;4.20;;;;;;;14.18;55.33;99243.84;105946;1276;99294;-68
2022/09/03 04:54:01;;;;;;;13.40;4.10;;;;;;;14.24;55.34;99245.48;105914;1278;108105;-64
2022/09/03 04:56:32;;;;;;;12.10;4.80;;;;;;;14.27;55.38;99240.69;105817;1277;99342;-65
2022/09/03 04:59:04;;;;;;;11.90;4.50;;;;;;;14.32;55.37;99238.23;105842;1277;99225;-63
2022/09/03 05:01:36;;;;;;;14.40;4.70;;;;;;;14.34;55.48;99234.25;105851;1277;114434;-66
2022/09/03 05:04:06;;;;;;;11.60;4.40;;;;;;;14.37;55.55;99236.33;105973;1277;99291;-62
2022/09/03 05:06:36;;;;;;;10.70;4.30;;;;;;;14.41;55.53;99237.55;106001;1276;107771;-67
2022/09/03 05:09:04;;;;;;;9.50;4.20;;;;;;;14.43;55.43;99240.05;105919;1277;99766;-68
2022/09/03 05:11:33;;;;;;;12.40;4.50;;;;;;;14.43;55.55;99243.23;106108;1277;99229;-63
2022/09/03 05:14:04;;;;;;;12.70;5.00;;;;;;;14.45;55.63;99241.56;105864;1277;113399;-65
2022/09/03 05:16:33;;;;;;;11.10;4.80;;;;;;;14.45;55.70;99240.82;105968;1277;99288;-65
2022/09/03 05:19:02;;;;;;;10.40;4.40;;;;;;;14.50;55.86;99242.77;105922;1276;108439;-63
2022/09/03 05:21:31;;;;;;;15.40;4.60;;;;;;;14.54;55.87;99249.14;105822;1278;99432;-66
2022/09/03 05:24:01;;;;;;;13.80;4.50;;;;;;;14.54;55.80;99247.48;105944;1276;99326;-66
2022/09/03 05:26:31;;;;;;;13.50;4.40;;;;;;;14.54;55.93;99246.27;105845;1276;113233;-64
2022/09/03 05:29:06;;;;;;;18.30;5.50;;;;;;;14.58;56.04;99244.83;105845;1276;99302;-67
2022/09/03 05:31:37;;;;;;;14.70;5.00;;;;;;;14.63;56.05;99246.61;105802;1277;107720;-65
2022/09/03 05:34:08;;;;;;;12.10;4.70;;;;;;;14.66;56.02;99243.99;105806;1277;99298;-66
2022/09/03 05:36:44;;;;;;;13.40;4.80;;;;;;;14.68;56.18;99243.69;105857;1276;99240;-69
2022/09/03 05:39:12;;;;;;;17.40;4.90;;;;;;;14.71;56.12;99245.73;106138;1276;113415;-68
2022/09/03 05:41:40;;;;;;;14.80;4.90;;;;;;;14.76;56.18;99244.41;105938;1276;99082;-68
2022/09/03 05:44:08;;;;;;;12.80;4.70;;;;;;;14.79;56.15;99247.38;105825;1277;108682;-69
2022/09/03 05:46:36;;;;;;;16.30;5.00;;;;;;;14.83;56.22;99252.25;105795;1277;99345;-68
2022/09/03 05:49:06;;;;;;;12.80;4.70;;;;;;;14.86;56.25;99251.96;107741;1276;97103;-68
2022/09/03 05:51:35;;;;;;;14.50;4.70;;;;;;;14.91;56.32;99253.65;107763;1276;112755;-69
2022/09/03 05:54:04;;;;;;;12.80;4.40;;;;;;;14.97;56.27;99249.42;107685;1277;97089;-68
2022/09/03 05:56:34;;;;;;;11.00;4.60;;;;;;;14.99;56.30;99246.73;107657;1277;107824;-67
2022/09/03 05:59:07;;;;;;;10.50;4.50;;;;;;;15.04;56.33;99253.59;107713;1276;97191;-68
2022/09/03 06:01:38;;;;;;;11.30;4.50;;;;;;;15.09;56.42;99247.98;107298;1276;99234;-68
2022/09/03 06:04:13;;;;;;;11.20;4.60;;;;;;;15.14;56.42;99254.47;105845;1277;113860;-66
2022/09/03 06:06:44;;;;;;;13.80;4.90;;;;;;;15.20;56.50;99256.46;105970;1277;96670;-68
2022/09/03 06:09:16;;;;;;;12.40;5.00;;;;;;;15.25;56.39;99260.34;106018;1275;106762;-69
2022/09/03 06:11:46;;;;;;;11.80;4.80;;;;;;;15.26;56.48;99259.20;105996;1276;99254;-70
2022/09/03 06:14:15;;;;;;;12.30;5.20;;;;;;;15.28;56.56;99257.16;105971;1276;96608;-70
2022/09/03 06:16:48;;;;;;;11.50;4.90;;;;;;;15.31;56.54;99261.41;105951;1276;114660;-70
2022/09/03 06:19:18;;;;;;;10.60;4.50;;;;;;;15.30;56.56;99260.71;105974;1277;99383;-68
2022/09/03 06:21:47;;;;;;;10.60;4.50;;;;;;;15.32;56.56;99259.31;105883;1276;107826;-69
2022/09/03 06:24:18;;;;;;;9.50;4.40;;;;;;;15.30;56.56;99258.10;105874;1277;100049;-68
2022/09/03 06:26:48;;;;;;;11.40;5.40;;;;;;;15.29;56.60;99264.20;105913;1276;99243;-69
2022/09/03 06:29:18;;;;;;;11.40;4.70;;;;;;;15.28;56.64;99269.48;105986;1276;112487;-64
2022/09/03 06:31:47;;;;;;;11.70;5.10;;;;;;;15.29;56.63;99270.84;105864;1276;97931;-64
2022/09/03 06:34:17;;;;;;;11.00;4.50;;;;;;;15.29;56.71;99269.09;105918;1276;107836;-65
2022/09/03 06:36:45;;;;;;;9.90;4.40;;;;;;;15.30;56.77;99268.66;105895;1276;99367;-65
2022/09/03 06:39:14;;;;;;;12.50;5.10;;;;;;;15.31;56.74;99267.77;105934;1276;99329;-65
2022/09/03 06:41:43;;;;;;;10.50;4.70;;;;;;;15.34;56.80;99267.73;105951;1276;113326;-64
2022/09/03 06:44:12;;;;;;;11.50;4.70;;;;;;;15.37;56.80;99270.69;105991;1276;99183;-63
2022/09/03 06:46:41;;;;;;;13.50;4.70;;;;;;;15.39;56.76;99279.41;105979;1276;108370;-64
2022/09/03 06:49:11;;;;;;;13.60;5.00;;;;;;;15.42;56.86;99279.71;105861;1277;99305;-63
2022/09/03 06:51:42;;;;;;;11.30;4.30;;;;;;;15.46;56.81;99280.77;105907;1276;99214;-65
2022/09/03 06:54:12;;;;;;;11.10;3.80;;;;;;;15.52;56.97;99283.67;105898;1276;112161;-63
2022/09/03 06:56:40;;;;;;;13.40;4.80;;;;;;;15.56;57.01;99277.38;105966;1277;99356;-66
2022/09/03 06:59:12;;;;;;;8.80;4.00;;;;;;;15.58;56.84;99275.38;105991;1277;107415;-65
2022/09/03 07:01:43;;;;;;;11.00;4.70;;;;;;;15.62;57.03;99279.20;105880;1278;99231;-66
2022/09/03 07:04:18;;;;;;;12.20;4.70;;;;;;;15.65;57.12;99282.86;105854;1277;99224;-63
2022/09/03 07:06:47;;;;;;;10.00;4.10;;;;;;;15.72;57.09;99293.06;105843;1277;112785;-65
2022/09/03 07:09:17;;;;;;;8.50;4.00;;;;;;;15.77;57.01;99293.23;105853;1278;100525;-63
2022/09/03 07:11:46;;;;;;;8.00;3.80;;;;;;;15.83;56.86;99296.11;105902;1277;108385;-63
2022/09/03 07:14:18;;;;;;;10.00;4.40;;;;;;;15.85;57.03;99297.71;105925;1276;99118;-63
2022/09/03 07:16:49;;;;;;;8.40;3.90;;;;;;;15.91;56.97;99304.64;105927;1276;99245;-63
2022/09/03 07:19:17;;;;;;;12.10;4.60;;;;;;;15.95;57.03;99306.61;106011;1276;112745;-62
2022/09/03 07:21:46;;;;;;;8.50;4.10;;;;;;;15.99;57.07;99306.11;105880;1277;98365;-65
2022/09/03 07:24:20;;;;;;;10.30;4.40;;;;;;;16.02;56.94;99302.92;105892;1276;107809;-63
2022/09/03 07:26:50;;;;;;;10.00;4.50;;;;;;;16.03;57.15;99302.14;105934;1277;99365;-71
2022/09/03 07:29:19;;;;;;;10.40;4.60;;;;;;;16.07;57.20;99303.23;105916;1276;99261;-69
2022/09/03 07:31:50;;;;;;;9.20;4.00;;;;;;;16.14;57.17;99302.04;105880;1277;112550;-68
2022/09/03 07:34:25;;;;;;;10.60;4.70;;;;;;;16.20;57.20;99295.73;105908;1277;99343;-68
2022/09/03 07:36:54;;;;;;;11.80;4.60;;;;;;;16.26;57.08;99297.18;105918;1276;107571;-71
2022/09/03 07:39:22;;;;;;;10.50;4.50;;;;;;;16.30;57.08;99294.34;105858;1277;99218;-70
2022/09/03 07:41:51;;;;;;;7.30;3.60;;;;;;;16.33;57.21;99296.70;105955;1276;99819;-71
2022/09/03 07:44:20;;;;;;;8.40;4.20;;;;;;;16.38;57.20;99300.41;105900;1277;111704;-72
2022/09/03 07:46:49;;;;;;;9.50;4.00;;;;;;;16.41;57.06;99301.52;105918;1276;96598;-71
2022/09/03 07:49:20;;;;;;;11.10;4.60;;;;;;;16.43;57.11;99302.81;105918;1276;107794;-71
2022/09/03 07:51:52;;;;;;;9.50;4.40;;;;;;;16.47;57.26;99309.39;106051;1277;99346;-75
2022/09/03 07:54:22;;;;;;;12.10;4.40;;;;;;;16.53;57.08;99311.55;106055;1276;99236;-66
2022/09/03 07:56:52;;;;;;;9.60;4.20;;;;;;;16.56;57.14;99312.84;105976;1277;113484;-70
2022/09/03 07:59:21;;;;;;;12.20;5.00;;;;;;;16.58;57.17;99311.79;105931;1279;99228;-71
2022/09/03 08:01:51;;;;;;;11.00;4.70;;;;;;;16.65;57.04;99319.76;105974;1276;109805;-67
2022/09/03 08:04:20;;;;;;;9.70;4.40;;;;;;;16.69;57.11;99321.47;105911;1277;99213;-71
2022/09/03 08:06:49;;;;;;;10.20;4.50;;;;;;;16.72;57.02;99330.83;105860;1277;99239;-70
2022/09/03 08:09:16;;;;;;;10.20;4.20;;;;;;;16.74;57.06;99328.85;105928;1277;112764;-70
2022/09/03 08:11:44;;;;;;;8.60;4.10;;;;;;;16.77;57.13;99326.30;106018;1276;99279;-68
2022/09/03 08:14:13;;;;;;;9.90;4.60;;;;;;;16.80;57.28;99329.18;105903;1276;108231;-67
2022/09/03 08:16:46;;;;;;;9.50;4.40;;;;;;;16.84;56.96;99328.73;105994;1276;99272;-68
2022/09/03 08:19:17;;;;;;;11.10;4.60;;;;;;;16.86;56.92;99329.98;106051;1276;99288;-65
2022/09/03 08:21:45;;;;;;;9.30;4.20;;;;;;;16.88;56.95;99325.15;105970;1277;112915;-67
2022/09/03 08:24:16;;;;;;;8.80;4.10;;;;;;;16.89;56.94;99325.67;105993;1276;99346;-66
2022/09/03 08:26:44;;;;;;;9.90;4.00;;;;;;;16.90;56.97;99322.03;105982;1276;107796;-67
2022/09/03 08:29:21;;;;;;;9.30;3.70;;;;;;;16.90;57.04;99319.83;105977;1277;99374;-68
2022/09/03 08:31:50;;;;;;;10.80;4.20;;;;;;;16.89;56.92;99318.02;105799;1276;99222;-70
2022/09/03 08:34:19;;;;;;;11.40;4.00;;;;;;;16.88;56.85;99323.09;105983;1276;112962;-66
2022/09/03 08:36:47;;;;;;;9.30;4.00;;;;;;;16.91;56.85;99327.48;106014;1276;99231;-68
2022/09/03 08:39:16;;;;;;;9.30;3.70;;;;;;;16.91;56.90;99324.22;105690;1276;109415;-67
2022/09/03 08:42:17;;;;;;;22.70;10.10;;;;;;;16.93;56.75;99326.56;106030;1276;96854;-66
2022/09/03 08:44:54;;;;;;;12.60;4.50;;;;;;;16.97;56.96;99322.29;105986;1276;99236;-68
2022/09/03 08:47:38;;;;;;;9.00;3.80;;;;;;;17.04;56.80;99316.59;105811;1277;112482;-67
2022/09/03 08:50:23;;;;;;;6.60;3.60;;;;;;;17.19;56.97;99311.43;105904;1276;96876;-67
2022/09/03 08:52:59;;;;;;;7.00;3.50;;;;;;;17.37;57.05;99304.14;105953;1276;107764;-67
2022/09/03 08:55:29;;;;;;;7.00;3.60;;;;;;;17.48;56.71;99302.91;105835;1279;99358;-68
2022/09/03 08:58:21;;;;;;;7.50;3.60;;;;;;;17.56;56.93;99299.23;105983;1277;99240;-67
2022/09/03 09:01:23;;;;;;;7.50;3.10;;;;;;;17.69;56.95;99298.84;105830;1278;113609;-66
2022/09/03 09:04:21;;;;;;;6.50;3.00;;;;;;;17.80;56.85;99304.25;106007;1276;97778;-67
2022/09/03 09:07:09;;;;;;;6.40;3.00;;;;;;;17.89;56.66;99303.88;105888;1276;107377;-67
2022/09/03 09:09:54;;;;;;;6.40;2.80;;;;;;;17.94;56.85;99309.33;105847;1277;96641;-67
2022/09/03 09:12:34;;;;;;;6.70;3.00;;;;;;;17.95;56.58;99310.66;105811;1276;99246;-64
2022/09/03 09:15:41;;;;;;;7.00;3.10;;;;;;;17.97;56.59;99309.77;105931;1276;113445;-64
2022/09/03 09:18:33;;;;;;;6.00;2.60;;;;;;;17.97;56.62;99313.67;105981;1276;99236;-64
2022/09/03 09:21:12;;;;;;;13.10;5.70;;;;;;;17.98;56.53;99319.88;105977;1276;107360;-63
2022/09/03 09:23:50;;;;;;;8.80;3.80;;;;;;;17.98;56.61;99319.20;105961;1277;99325;-65
2022/09/03 09:26:21;;;;;;;5.80;2.90;;;;;;;18.00;56.62;99321.63;106010;1276;99235;-64
2022/09/03 09:29:05;;;;;;;7.40;3.00;;;;;;;18.08;56.57;99324.16;105898;1278;112632;-62
2022/09/03 09:31:39;;;;;;;4.40;2.60;;;;;;;18.15;56.54;99318.55;105940;1276;99240;-64
2022/09/03 09:34:09;;;;;;;9.70;3.30;;;;;;;18.24;56.21;99324.52;105892;1276;107756;-67
2022/09/03 09:36:51;;;;;;;11.30;3.20;;;;;;;18.43;56.21;99319.51;105920;1277;99287;-66
2022/09/03 09:39:22;;;;;;;5.90;3.00;;;;;;;18.61;56.12;99316.61;105829;1276;99229;-65
2022/09/03 09:42:08;;;;;;;5.50;2.80;;;;;;;18.75;56.26;99323.52;105934;1276;112804;-65
2022/09/03 09:44:40;;;;;;;9.20;3.20;;;;;;;18.86;56.37;99326.54;105894;1276;99254;-65
2022/09/03 09:47:35;;;;;;;6.20;3.20;;;;;;;18.92;56.10;99330.05;105886;1276;107757;-65
2022/09/03 09:50:15;;;;;;;5.90;2.80;;;;;;;18.96;56.04;99323.16;105813;1276;97604;-64
2022/09/03 09:53:13;;;;;;;5.70;2.70;;;;;;;19.12;56.16;99321.84;105818;1276;99209;-65
2022/09/03 09:55:50;;;;;;;6.90;2.60;;;;;;;19.24;56.14;99324.04;105781;1276;113421;-64
2022/09/03 09:58:22;;;;;;;6.80;2.70;;;;;;;19.30;56.10;99329.10;105934;1276;99250;-63
2022/09/03 10:00:56;;;;;;;5.50;3.00;;;;;;;19.33;55.82;99332.08;105949;1276;107728;-65
2022/09/03 10:03:28;;;;;;;5.40;2.80;;;;;;;19.32;55.81;99332.75;105923;1276;99332;-65
2022/09/03 10:09:16;;;;;;;7.10;2.70;;;;;;;19.24;55.64;99331.83;105886;1276;113396;-63
2022/09/03 10:11:50;;;;;;;9.20;2.70;;;;;;;19.18;55.67;99329.38;105928;1276;99457;-66
2022/09/03 10:14:24;;;;;;;7.70;2.70;;;;;;;19.16;55.58;99330.59;105924;1276;107786;-66
2022/09/03 10:17:03;;;;;;;8.50;2.80;;;;;;;19.18;55.42;99329.51;106005;1276;99250;-64
2022/09/03 10:19:42;;;;;;;6.50;2.50;;;;;;;19.22;55.42;99329.27;105973;1276;99235;-66
2022/09/03 10:22:18;;;;;;;4.50;2.70;;;;;;;19.28;55.19;99326.35;105879;1276;114255;-66
2022/09/03 10:25:00;;;;;;;6.90;2.80;;;;;;;19.30;55.24;99324.88;105939;1276;96636;-67
2022/09/03 10:27:29;;;;;;;4.60;2.60;;;;;;;19.32;55.24;99330.42;105918;1276;107823;-68
2022/09/03 10:30:01;;;;;;;7.00;3.00;;;;;;;19.37;55.26;99331.89;105837;1276;99309;-68
2022/09/03 10:33:03;;;;;;;4.50;2.70;;;;;;;19.43;55.20;99327.11;105911;1277;99327;-68
2022/09/03 10:35:46;;;;;;;6.70;2.80;;;;;;;19.50;55.14;99331.95;105964;1276;112746;-68
2022/09/03 10:38:33;;;;;;;5.70;2.70;;;;;;;19.56;55.10;99334.86;105914;1276;98443;-68
2022/09/03 10:41:29;;;;;;;6.50;2.80;;;;;;;19.62;54.96;99335.48;106094;1276;108488;-66
2022/09/03 10:44:29;;;;;;;7.60;3.20;;;;;;;19.64;54.72;99335.45;105987;1276;99922;-68
2022/09/03 10:47:06;;;;;;;5.70;2.80;;;;;;;19.67;54.77;99330.46;106026;1276;99235;-65
2022/09/03 10:50:00;;;;;;;11.10;3.30;;;;;;;19.71;54.67;99323.77;105938;1276;112803;-69
2022/09/03 10:53:17;;;;;;;6.90;3.20;;;;;;;19.78;54.52;99324.83;105969;1277;99183;-69
2022/09/03 10:55:59;;;;;;;6.50;3.20;;;;;;;19.83;54.47;99316.91;105455;1279;108323;-68
2022/09/03 10:58:27;;;;;;;10.00;3.00;;;;;;;19.89;54.40;99324.72;105912;1276;99327;-68
2022/09/03 11:01:17;;;;;;;7.00;3.00;;;;;;;19.91;54.27;99325.13;105901;1276;97783;-68
2022/09/03 11:04:04;;;;;;;8.00;3.30;;;;;;;19.91;54.18;99323.14;105880;1278;112794;-70
2022/09/03 11:07:02;;;;;;;6.50;3.10;;;;;;;19.92;54.26;99323.31;105860;1277;99222;-71
2022/09/03 11:09:47;;;;;;;6.90;3.20;;;;;;;19.93;54.21;99323.45;105799;1276;107870;-70
2022/09/03 11:12:39;;;;;;;6.80;3.10;;;;;;;19.96;54.02;99325.64;105669;1278;97763;-70
2022/09/03 11:15:34;;;;;;;9.50;3.70;;;;;;;19.97;54.01;99330.23;105984;1276;99337;-68
2022/09/03 11:18:25;;;;;;;16.00;6.80;;;;;;;20.02;53.90;99326.42;105878;1276;112823;-68
2022/09/03 11:21:03;;;;;;;10.50;4.30;;;;;;;20.03;53.93;99328.28;105795;1275;99225;-71
2022/09/03 11:23:42;;;;;;;6.50;3.20;;;;;;;20.08;53.80;99326.51;106820;1276;106352;-69
2022/09/03 11:26:18;;;;;;;15.60;3.60;;;;;;;20.13;53.69;99329.28;105634;1277;97702;-69
2022/09/03 11:29:24;;;;;;;8.20;3.40;;;;;;;20.18;53.72;99330.50;105702;1276;99222;-69
2022/09/03 11:32:22;;;;;;;8.20;3.40;;;;;;;20.20;53.67;99328.23;105796;1276;112902;-71
2022/09/03 11:34:54;;;;;;;12.30;4.10;;;;;;;20.24;53.47;99328.77;105791;1276;100363;-69
2022/09/03 11:37:24;;;;;;;12.70;4.10;;;;;;;20.26;53.48;99331.81;105878;1276;107702;-68
2022/09/03 11:40:17;;;;;;;12.90;4.70;;;;;;;20.27;53.44;99331.02;105920;1276;99320;-71
2022/09/03 11:42:47;;;;;;;12.90;4.70;;;;;;;20.27;53.35;99331.65;105987;1276;97700;-70
2022/09/03 11:45:29;;;;;;;7.30;3.30;;;;;;;20.32;53.28;99330.01;106010;1277;112786;-69
2022/09/03 11:48:00;;;;;;;12.30;4.50;;;;;;;20.31;53.19;99328.20;105884;1276;99201;-70
2022/09/03 11:50:32;;;;;;;11.20;4.10;;;;;;;20.31;53.13;99328.31;105934;1276;107735;-70
2022/09/03 11:53:10;;;;;;;10.30;3.60;;;;;;;20.29;53.01;99324.80;105918;1276;99252;-71
2022/09/03 11:56:04;;;;;;;8.90;3.80;;;;;;;20.26;52.91;99326.20;107783;1275;97112;-69
2022/09/03 11:58:35;;;;;;;7.20;3.50;;;;;;;20.21;52.75;99319.66;107399;1276;112868;-69
2022/09/03 12:01:14;;;;;;;6.40;3.40;;;;;;;20.22;52.74;99319.23;107691;1276;97529;-68
2022/09/03 12:03:47;;;;;;;12.60;4.10;;;;;;;20.25;52.79;99319.05;107620;1276;108224;-69